Time;durP1;ratioP1;P1;durP2;ratioP2;P2;SDS_P1;SDS_P2;PMS_P1;PMS_P2;Temp;Humidity;BMP_temperature;BMP_pressure;BME280_temperature;BME280_humidity;BME280_pressure;Samples;Min_cycle;Max_cycle;Signal;HPM_P1;HPM_P2
2024/04/16 00:00:31;;;;;;;8.40;4.20;;;;;;;17.62;46.94;99235.34;108887;1251;106517;-73
2024/04/16 00:03:36;;;;;;;11.00;4.20;;;;;;;17.60;47.05;99243.85;108961;1249;96877;-73
2024/04/16 00:06:27;;;;;;;10.00;4.00;;;;;;;17.67;47.29;99252.27;109002;1250;96633;-73
2024/04/16 00:09:18;;;;;;;7.70;3.70;;;;;;;17.72;47.19;99252.54;108966;1249;111358;-73
2024/04/16 00:12:09;;;;;;;10.90;4.00;;;;;;;17.72;47.30;99247.59;109007;1249;97177;-73
2024/04/16 00:15:00;;;;;;;10.00;4.00;;;;;;;17.78;47.58;99236.73;109095;1251;106446;-73
2024/04/16 00:17:50;;;;;;;8.10;4.00;;;;;;;17.82;47.81;99231.90;108900;1251;96339;-73
2024/04/16 00:20:41;;;;;;;11.20;3.60;;;;;;;17.84;47.82;99234.33;109061;1249;96627;-74
2024/04/16 00:23:23;;;;;;;10.80;4.10;;;;;;;17.82;48.07;99230.30;108947;1250;112696;-73
2024/04/16 00:26:14;;;;;;;11.20;4.30;;;;;;;17.86;48.29;99227.79;108993;1251;96232;-73
2024/04/16 00:29:08;;;;;;;10.70;3.90;;;;;;;17.89;48.31;99227.76;108985;1251;106393;-73
2024/04/16 00:31:59;;;;;;;9.80;3.70;;;;;;;17.90;48.53;99233.05;108927;1250;96857;-73
2024/04/16 00:34:49;;;;;;;10.90;4.30;;;;;;;17.87;48.48;99236.25;108970;1251;96226;-73
2024/04/16 00:37:42;;;;;;;10.00;3.60;;;;;;;17.82;48.56;99223.95;108935;1251;111355;-73
2024/04/16 00:40:33;;;;;;;7.10;3.20;;;;;;;17.80;48.97;99220.24;109118;1251;96767;-73
2024/04/16 00:43:24;;;;;;;9.90;3.80;;;;;;;17.82;49.00;99221.46;108925;1251;106788;-73
2024/04/16 00:46:07;;;;;;;5.90;3.30;;;;;;;17.82;49.15;99215.44;108930;1250;96398;-73
2024/04/16 00:48:59;;;;;;;7.60;3.60;;;;;;;17.84;49.41;99207.46;109001;1251;96785;-73
2024/04/16 00:51:50;;;;;;;10.70;3.50;;;;;;;17.85;49.65;99201.97;108924;1249;111443;-74
2024/04/16 00:54:43;;;;;;;9.20;3.50;;;;;;;17.86;49.68;99204.61;109051;1249;99646;-73
2024/04/16 00:57:35;;;;;;;10.00;3.80;;;;;;;17.87;49.85;99210.77;109032;1249;106292;-73
2024/04/16 01:00:26;;;;;;;6.20;3.50;;;;;;;17.86;49.81;99223.70;108991;1250;96358;-73
2024/04/16 01:03:17;;;;;;;9.20;4.00;;;;;;;17.78;49.79;99233.72;108826;1250;96428;-74
2024/04/16 01:06:08;;;;;;;9.60;4.00;;;;;;;17.65;49.94;99243.44;108938;1251;111510;-73
2024/04/16 01:08:41;;;;;;;9.40;3.90;;;;;;;17.52;50.31;99250.86;108925;1251;96736;-73
2024/04/16 01:11:32;;;;;;;7.70;3.60;;;;;;;17.41;50.48;99248.34;108958;1250;106479;-73
2024/04/16 01:14:16;;;;;;;7.40;3.50;;;;;;;17.34;50.73;99245.78;108970;1251;96261;-73
2024/04/16 01:16:59;;;;;;;10.70;4.00;;;;;;;17.31;50.81;99247.23;109049;1250;96272;-73
2024/04/16 01:19:44;;;;;;;8.60;3.50;;;;;;;17.29;51.13;99239.66;108965;1250;111333;-73
2024/04/16 01:22:20;;;;;;;8.00;3.80;;;;;;;17.31;51.30;99235.92;108901;1249;96891;-73
2024/04/16 01:25:11;;;;;;;10.20;3.70;;;;;;;17.31;51.20;99231.84;108983;1250;107778;-73
2024/04/16 01:28:02;;;;;;;9.80;3.90;;;;;;;17.28;51.45;99233.48;109029;1251;96202;-73
2024/04/16 01:30:53;;;;;;;9.60;3.80;;;;;;;17.29;51.55;99231.16;108987;1251;96266;-73
2024/04/16 01:33:44;;;;;;;8.50;3.60;;;;;;;17.32;51.80;99232.53;108881;1251;111143;-73
2024/04/16 01:36:35;;;;;;;10.70;3.90;;;;;;;17.36;51.96;99229.66;108924;1250;96509;-73
2024/04/16 01:39:26;;;;;;;7.60;3.80;;;;;;;17.36;52.00;99229.48;109028;1249;106338;-73
2024/04/16 01:42:16;;;;;;;11.30;4.00;;;;;;;17.40;52.20;99229.96;109058;1249;96237;-74
2024/04/16 01:45:07;;;;;;;8.60;3.60;;;;;;;17.43;52.34;99222.15;108997;1250;97188;-73
2024/04/16 01:47:58;;;;;;;10.60;3.80;;;;;;;17.45;52.56;99217.35;108960;1251;111361;-73
2024/04/16 01:50:50;;;;;;;9.20;3.60;;;;;;;17.44;52.56;99210.29;108975;1251;96328;-73
2024/04/16 01:53:41;;;;;;;8.70;3.70;;;;;;;17.46;52.63;99208.86;108923;1250;106398;-73
2024/04/16 01:56:32;;;;;;;7.80;3.60;;;;;;;17.48;52.70;99206.71;108977;1250;96276;-73
2024/04/16 01:59:23;;;;;;;9.00;3.40;;;;;;;17.46;52.85;99208.14;109021;1249;96217;-73
2024/04/16 02:02:14;;;;;;;10.40;3.80;;;;;;;17.42;52.83;99209.44;109018;1249;111357;-73
2024/04/16 02:05:06;;;;;;;12.60;4.00;;;;;;;17.34;53.00;99200.36;108999;1250;96246;-73
2024/04/16 02:07:57;;;;;;;5.80;3.30;;;;;;;17.27;53.17;99188.42;109016;1250;106367;-73
2024/04/16 02:10:54;;;;;;;12.50;3.90;;;;;;;17.24;53.25;99178.02;109100;1249;96846;-73
2024/04/16 02:13:43;;;;;;;11.20;3.60;;;;;;;17.28;53.47;99181.15;108855;1249;96355;-73
2024/04/16 02:16:34;;;;;;;12.40;3.90;;;;;;;17.28;53.60;99177.09;108918;1250;117811;-73
2024/04/16 02:19:25;;;;;;;9.10;3.70;;;;;;;17.27;53.61;99165.96;108993;1249;96388;-73
2024/04/16 02:22:16;;;;;;;10.30;3.90;;;;;;;17.28;53.77;99158.55;108951;1250;106413;-73
2024/04/16 02:25:10;;;;;;;7.00;4.00;;;;;;;17.32;53.96;99160.45;108942;1249;96478;-73
2024/04/16 02:28:03;;;;;;;7.50;3.70;;;;;;;17.33;53.97;99160.23;109075;1250;96832;-73
2024/04/16 02:30:54;;;;;;;9.00;4.20;;;;;;;17.25;53.90;99161.04;108895;1251;111332;-73
2024/04/16 02:33:29;;;;;;;9.90;4.00;;;;;;;17.13;54.00;99166.67;108885;1250;96288;-74
2024/04/16 02:36:14;;;;;;;11.30;4.30;;;;;;;16.96;54.10;99163.16;108957;1249;106325;-73
2024/04/16 02:39:05;;;;;;;9.00;4.50;;;;;;;16.81;54.35;99155.01;108958;1249;96799;-73
2024/04/16 02:41:56;;;;;;;10.90;4.00;;;;;;;16.77;54.73;99153.47;108990;1250;96239;-73
2024/04/16 02:44:47;;;;;;;10.40;4.30;;;;;;;16.80;54.85;99150.79;108949;1250;112744;-73
2024/04/16 02:47:18;;;;;;;15.30;4.70;;;;;;;16.83;54.94;99149.35;109052;1250;96702;-73
2024/04/16 02:50:09;;;;;;;13.20;5.10;;;;;;;16.82;54.99;99139.98;109043;1249;105101;-73
2024/04/16 02:53:00;;;;;;;13.10;4.70;;;;;;;16.83;55.09;99127.27;108890;1250;96238;-73
2024/04/16 02:55:51;;;;;;;11.60;4.50;;;;;;;16.83;55.37;99119.86;108919;1250;96329;-73
2024/04/16 02:58:33;;;;;;;11.40;4.40;;;;;;;16.77;55.30;99119.02;109050;1249;111368;-74
2024/04/16 03:01:26;;;;;;;11.30;4.60;;;;;;;16.76;55.40;99124.15;109009;1250;97152;-73
2024/04/16 03:04:17;;;;;;;15.60;4.90;;;;;;;16.75;55.62;99125.41;108932;1249;106244;-73
2024/04/16 03:07:08;;;;;;;16.60;4.90;;;;;;;16.75;55.67;99124.16;108932;1250;96255;-73
2024/04/16 03:10:00;;;;;;;15.40;4.90;;;;;;;16.76;55.75;99128.23;109067;1249;97328;-72
2024/04/16 03:12:53;;;;;;;21.10;5.60;;;;;;;16.74;55.95;99126.84;108958;1249;111368;-72
2024/04/16 03:15:44;;;;;;;22.70;5.30;;;;;;;16.66;55.91;99124.27;108948;1250;97123;-72
2024/04/16 03:18:35;;;;;;;13.90;4.60;;;;;;;16.63;56.04;99114.95;108962;1250;106355;-72
2024/04/16 03:21:19;;;;;;;11.80;4.60;;;;;;;16.60;56.17;99110.75;108911;1249;96273;-72
2024/04/16 03:24:10;;;;;;;13.30;4.60;;;;;;;16.55;56.18;99126.16;109062;1249;96285;-72
2024/04/16 03:27:01;;;;;;;14.50;4.80;;;;;;;16.39;56.21;99136.91;108850;1250;111346;-72
2024/04/16 03:29:52;;;;;;;11.70;5.00;;;;;;;16.21;56.45;99137.08;109028;1250;96268;-72
2024/04/16 03:32:43;;;;;;;10.30;4.80;;;;;;;16.08;56.57;99140.55;108956;1250;105893;-72
2024/04/16 03:35:33;;;;;;;15.20;5.50;;;;;;;15.96;57.02;99142.40;108843;1250;96266;-73
2024/04/16 03:38:24;;;;;;;13.10;5.10;;;;;;;15.88;57.25;99152.16;108910;1250;96223;-73
2024/04/16 03:41:15;;;;;;;13.40;5.80;;;;;;;15.76;57.43;99167.91;108848;1253;111187;-72
2024/04/16 03:44:06;;;;;;;14.80;4.90;;;;;;;15.67;58.06;99170.60;108849;1250;96839;-73
2024/04/16 03:46:58;;;;;;;12.70;5.20;;;;;;;15.58;58.09;99180.54;108814;1250;106431;-73
2024/04/16 03:49:49;;;;;;;18.20;5.80;;;;;;;15.52;58.35;99189.38;108875;1250;96677;-72
2024/04/16 03:52:40;;;;;;;15.10;5.00;;;;;;;15.37;59.19;99200.72;108858;1250;96692;-72
2024/04/16 03:55:31;;;;;;;17.60;5.20;;;;;;;15.24;59.16;99204.48;108976;1250;112702;-73
2024/04/16 03:58:22;;;;;;;13.50;5.20;;;;;;;15.21;59.29;99208.73;108975;1250;96298;-73
2024/04/16 04:01:14;;;;;;;13.60;4.80;;;;;;;15.17;59.59;99212.45;108948;1250;106268;-75
2024/04/16 04:04:05;;;;;;;10.50;4.60;;;;;;;15.15;60.19;99224.79;108974;1249;96994;-72
2024/04/16 04:06:56;;;;;;;10.00;4.70;;;;;;;15.06;61.21;99235.90;109000;1251;96315;-72
2024/04/16 04:09:50;;;;;;;12.90;5.20;;;;;;;14.95;61.53;99238.05;108831;1249;110374;-72
2024/04/16 04:12:40;;;;;;;12.70;4.40;;;;;;;14.90;61.15;99234.71;108867;1249;96287;-73
2024/04/16 04:15:32;;;;;;;14.90;4.70;;;;;;;14.96;61.21;99234.70;108680;1249;106375;-73
2024/04/16 04:18:23;;;;;;;12.80;4.60;;;;;;;14.96;61.38;99236.45;108798;1250;96386;-72
2024/04/16 04:21:08;;;;;;;13.40;4.70;;;;;;;14.94;61.37;99231.17;108523;1250;97299;-75
2024/04/16 04:23:59;;;;;;;14.10;4.70;;;;;;;14.96;61.40;99219.73;108716;1250;112726;-72
2024/04/16 04:26:50;;;;;;;12.60;4.40;;;;;;;15.00;61.35;99211.62;108785;1250;96318;-73
2024/04/16 04:29:41;;;;;;;13.00;4.90;;;;;;;15.07;61.34;99210.18;108771;1250;113565;-73
2024/04/16 04:32:32;;;;;;;10.00;4.30;;;;;;;15.11;61.33;99200.84;108876;1250;96374;-72
2024/04/16 04:35:23;;;;;;;11.90;4.80;;;;;;;15.15;61.43;99197.30;108902;1250;96943;-72
2024/04/16 04:38:14;;;;;;;11.30;4.60;;;;;;;15.23;61.38;99199.21;108720;1250;111367;-72
2024/04/16 04:41:05;;;;;;;10.20;4.70;;;;;;;15.28;61.20;99195.66;108756;1250;96904;-72
2024/04/16 04:43:57;;;;;;;10.20;4.40;;;;;;;15.36;61.52;99190.52;108745;1250;106456;-72
2024/04/16 04:46:48;;;;;;;15.40;5.00;;;;;;;15.57;61.61;99189.17;108780;1250;96249;-72
2024/04/16 04:49:41;;;;;;;9.10;4.10;;;;;;;15.81;61.79;99184.13;108777;1249;96870;-73
2024/04/16 04:52:32;;;;;;;9.90;4.50;;;;;;;15.94;61.67;99187.73;108890;1250;112625;-72
2024/04/16 04:55:32;;;;;;;11.70;4.70;;;;;;;16.11;61.62;99191.15;108733;1250;96299;-73
2024/04/16 04:58:31;;;;;;;14.50;5.40;;;;;;;16.24;61.52;99187.34;108551;1250;105763;-72
2024/04/16 05:01:22;;;;;;;14.30;4.60;;;;;;;16.36;61.40;99186.52;108615;1251;96361;-72
2024/04/16 05:04:13;;;;;;;14.40;4.70;;;;;;;16.41;61.52;99179.95;108765;1250;96335;-72
2024/04/16 05:07:05;;;;;;;11.60;4.90;;;;;;;16.52;61.62;99179.84;108760;1250;111359;-72
2024/04/16 05:09:51;;;;;;;11.70;4.50;;;;;;;16.62;61.63;99178.52;108705;1250;96694;-72
2024/04/16 05:12:43;;;;;;;10.90;4.60;;;;;;;16.71;61.65;99175.60;108856;1250;108493;-72
2024/04/16 05:15:34;;;;;;;14.50;4.80;;;;;;;16.87;61.60;99164.33;108780;1250;96531;-72
2024/04/16 05:18:27;;;;;;;10.70;4.30;;;;;;;17.03;61.39;99163.80;108529;1250;97454;-73
2024/04/16 05:21:18;;;;;;;10.20;4.50;;;;;;;17.16;61.24;99168.59;108506;1250;116530;-72
2024/04/16 05:24:09;;;;;;;11.80;4.30;;;;;;;17.29;61.24;99174.26;108586;1250;97649;-73
2024/04/16 05:27:00;;;;;;;10.00;4.60;;;;;;;17.38;61.10;99174.30;108406;1249;106423;-72
2024/04/16 05:29:51;;;;;;;10.60;4.50;;;;;;;17.42;60.97;99173.19;108323;1250;96630;-72
2024/04/16 05:32:44;;;;;;;14.10;5.00;;;;;;;17.48;60.88;99170.64;108609;1250;97309;-72
2024/04/16 05:35:24;;;;;;;16.30;5.00;;;;;;;17.56;60.98;99164.70;108537;1250;111295;-72
2024/04/16 05:38:16;;;;;;;15.00;5.40;;;;;;;17.65;60.88;99163.15;108766;1250;96663;-72
2024/04/16 05:41:10;;;;;;;10.90;4.70;;;;;;;17.69;60.68;99159.91;108665;1250;106287;-72
2024/04/16 05:44:01;;;;;;;19.00;5.10;;;;;;;17.73;60.62;99166.59;108701;1250;97231;-72
2024/04/16 05:46:54;;;;;;;11.80;4.20;;;;;;;17.83;60.73;99164.67;108637;1250;97265;-73
2024/04/16 05:49:45;;;;;;;14.50;4.40;;;;;;;17.91;60.70;99165.98;108548;1250;111156;-74
2024/04/16 05:52:36;;;;;;;12.40;4.40;;;;;;;18.00;60.55;99173.98;108653;1250;96729;-74
2024/04/16 05:55:28;;;;;;;12.10;4.00;;;;;;;18.08;60.48;99173.52;108561;1249;107009;-72
2024/04/16 05:58:13;;;;;;;9.90;4.10;;;;;;;18.13;60.35;99166.69;108590;1251;97257;-74
2024/04/16 06:01:07;;;;;;;11.60;4.10;;;;;;;18.22;60.17;99160.19;108426;1251;97561;-72
2024/04/16 06:03:59;;;;;;;11.60;4.40;;;;;;;18.24;60.11;99163.14;108368;1251;111370;-73
2024/04/16 06:06:51;;;;;;;14.30;4.40;;;;;;;18.34;60.12;99158.56;108487;1251;96778;-72
2024/04/16 06:09:46;;;;;;;11.00;4.10;;;;;;;18.42;60.04;99159.48;108486;1250;106392;-73
2024/04/16 06:12:24;;;;;;;13.60;4.60;;;;;;;18.54;60.11;99161.03;108572;1250;97201;-74
2024/04/16 06:15:15;;;;;;;8.60;4.20;;;;;;;18.66;59.74;99166.13;108436;1251;97644;-72
2024/04/16 06:18:09;;;;;;;8.50;3.80;;;;;;;18.73;59.69;99162.27;108555;1250;111051;-73
2024/04/16 06:20:42;;;;;;;14.90;4.50;;;;;;;18.83;59.58;99162.81;104576;1251;5428198;-72
2024/04/16 06:23:33;;;;;;;10.30;4.00;;;;;;;18.92;59.54;99171.16;108687;1250;97385;-74
2024/04/16 06:26:28;;;;;;;11.40;4.30;;;;;;;19.09;59.50;99177.20;108714;1250;96697;-74
2024/04/16 06:29:12;;;;;;;13.50;4.20;;;;;;;19.18;59.32;99181.63;108316;1250;113235;-74
2024/04/16 06:32:05;;;;;;;13.60;4.60;;;;;;;19.31;59.33;99188.80;108440;1250;97531;-72
2024/04/16 06:34:56;;;;;;;11.70;4.50;;;;;;;19.48;59.18;99185.27;108663;1251;107635;-73
2024/04/16 06:37:46;;;;;;;11.00;4.30;;;;;;;19.64;58.89;99176.73;108646;1250;96554;-72
2024/04/16 06:40:37;;;;;;;12.90;4.40;;;;;;;19.81;58.78;99173.20;108523;1250;96740;-73
2024/04/16 06:43:29;;;;;;;10.10;4.50;;;;;;;19.98;58.65;99166.59;108757;1250;112536;-73
2024/04/16 06:46:20;;;;;;;9.90;4.30;;;;;;;20.14;58.18;99167.44;108455;1251;96799;-74
2024/04/16 06:49:03;;;;;;;9.30;4.00;;;;;;;20.30;58.04;99164.21;108575;1251;107703;-72
2024/04/16 06:51:36;;;;;;;;;;;;;;;20.43;58.00;99163.88;108607;1250;97561;-72
2024/04/16 06:54:27;;;;;;;10.30;3.80;;;;;;;20.58;57.57;99162.78;108643;1250;96770;-74
2024/04/16 06:57:22;;;;;;;8.70;3.60;;;;;;;20.75;57.44;99157.73;108617;1250;110400;-72
2024/04/16 07:00:16;;;;;;;8.60;3.60;;;;;;;20.90;57.13;99156.45;108665;1250;97678;-74
2024/04/16 07:03:07;;;;;;;9.70;3.80;;;;;;;21.06;56.82;99148.51;108686;1250;107542;-72
2024/04/16 07:05:58;;;;;;;10.40;3.90;;;;;;;21.24;56.62;99144.23;108661;1250;97469;-72
2024/04/16 07:08:31;;;;;;;;;;;;;;;21.41;56.55;99142.14;108713;1250;97607;-71
2024/04/16 07:11:15;;;;;;;14.20;3.90;;;;;;;21.64;56.59;99151.25;108697;1250;111315;-73
2024/04/16 07:13:46;;;;;;;8.90;3.50;;;;;;;21.82;56.42;99152.84;108627;1250;100976;-74
2024/04/16 07:16:17;;;;;;;8.70;3.30;;;;;;;21.98;56.09;99151.78;108660;1254;106404;-72
2024/04/16 07:19:08;;;;;;;8.40;3.70;;;;;;;22.13;55.68;99149.85;108643;1250;97247;-71
2024/04/16 07:21:59;;;;;;;8.30;3.30;;;;;;;22.16;55.26;99154.56;108627;1253;96676;-73
2024/04/16 07:24:33;;;;;;;8.10;3.40;;;;;;;22.27;55.17;99154.59;108659;1250;111332;-72
2024/04/16 07:27:13;;;;;;;6.20;3.30;;;;;;;22.38;54.45;99154.59;108665;1249;96682;-72
2024/04/16 07:30:05;;;;;;;10.50;3.10;;;;;;;22.44;54.40;99155.98;108676;1251;106439;-73
2024/04/16 07:33:01;;;;;;;9.10;3.60;;;;;;;22.51;53.99;99147.02;108628;1250;97845;-73
2024/04/16 07:35:58;;;;;;;9.40;3.20;;;;;;;22.57;53.98;99143.05;108522;1250;96749;-73
2024/04/16 07:38:51;;;;;;;10.90;3.40;;;;;;;22.65;53.73;99139.73;108564;1250;111269;-75
2024/04/16 07:41:22;;;;;;;10.80;3.40;;;;;;;22.78;53.59;99135.73;108626;1251;96438;-72
2024/04/16 07:43:52;;;;;;;8.20;3.50;;;;;;;22.98;53.50;99136.62;108663;1250;107745;-72
2024/04/16 07:46:26;;;;;;;12.40;3.80;;;;;;;23.14;52.90;99128.38;108454;1253;97985;-72
2024/04/16 07:48:57;;;;;;;5.30;3.00;;;;;;;23.26;52.67;99119.51;108670;1250;96320;-74
2024/04/16 07:51:50;;;;;;;7.20;3.30;;;;;;;23.42;52.67;99119.81;108651;1249;111271;-72
2024/04/16 07:54:26;;;;;;;7.20;3.00;;;;;;;23.58;52.36;99115.79;108563;1249;100295;-72
2024/04/16 07:56:59;;;;;;;8.40;3.30;;;;;;;23.70;50.89;99111.38;108597;1250;107602;-72
2024/04/16 07:59:30;;;;;;;11.80;3.50;;;;;;;23.83;51.78;99106.95;108588;1250;97653;-72
2024/04/16 08:02:04;;;;;;;7.10;3.40;;;;;;;23.99;51.07;99100.06;108542;1250;96977;-74
2024/04/16 08:04:35;;;;;;;6.90;3.30;;;;;;;24.11;51.15;99094.55;108597;1249;112665;-72
2024/04/16 08:07:06;;;;;;;17.30;3.90;;;;;;;24.27;51.02;99089.41;108705;1250;96720;-73
2024/04/16 08:09:43;;;;;;;7.30;3.30;;;;;;;24.34;50.63;99092.30;108607;1250;106440;-73
2024/04/16 08:12:21;;;;;;;6.90;3.20;;;;;;;24.36;50.36;99093.28;108529;1253;96817;-72
2024/04/16 08:15:00;;;;;;;10.40;3.30;;;;;;;24.39;50.27;99088.51;108572;1249;96779;-72
2024/04/16 08:17:34;;;;;;;6.50;3.10;;;;;;;24.47;50.05;99089.45;108652;1250;113393;-71
2024/04/16 08:20:11;;;;;;;8.00;3.30;;;;;;;24.54;50.13;99090.39;108594;1251;96847;-72
2024/04/16 08:22:49;;;;;;;9.70;3.40;;;;;;;24.65;49.64;99094.03;108665;1250;106282;-73
2024/04/16 08:25:20;;;;;;;6.40;3.10;;;;;;;24.76;49.13;99094.59;108598;1249;97881;-73
2024/04/16 08:27:59;;;;;;;14.60;3.40;;;;;;;24.86;49.17;99088.44;108595;1250;97310;-72
2024/04/16 08:30:29;;;;;;;7.30;3.40;;;;;;;24.97;48.46;99094.92;108613;1250;111328;-72
2024/04/16 08:33:00;;;;;;;10.00;3.70;;;;;;;25.09;48.43;99089.70;108747;1250;97803;-74
2024/04/16 08:35:32;;;;;;;9.60;3.20;;;;;;;25.24;48.01;99084.75;108673;1251;106914;-72
2024/04/16 08:38:06;;;;;;;10.20;3.40;;;;;;;25.32;47.62;99080.45;108650;1252;96900;-72
2024/04/16 08:40:39;;;;;;;11.80;3.50;;;;;;;25.39;47.77;99077.95;108664;1250;97293;-73
2024/04/16 08:43:09;;;;;;;;;;;;;;;25.47;47.05;99077.73;108695;1250;111496;-73
2024/04/16 08:45:45;;;;;;;7.50;3.00;;;;;;;25.60;46.96;99077.67;108642;1251;97157;-72
2024/04/16 08:48:17;;;;;;;8.80;3.50;;;;;;;25.67;46.53;99079.65;108582;1250;106844;-73
2024/04/16 08:50:51;;;;;;;4.90;2.90;;;;;;;25.77;46.19;99077.20;108545;1250;96815;-73
2024/04/16 08:53:23;;;;;;;10.00;3.50;;;;;;;25.92;46.21;99075.75;108561;1250;97184;-74
2024/04/16 08:55:53;;;;;;;12.20;3.70;;;;;;;26.09;45.57;99074.92;108647;1250;112580;-74
2024/04/16 08:58:24;;;;;;;9.20;3.90;;;;;;;26.16;45.18;99076.14;108585;1249;97093;-72
2024/04/16 09:00:57;;;;;;;10.30;3.90;;;;;;;26.19;44.94;99070.45;108618;1250;107918;-72
2024/04/16 09:03:26;;;;;;;;;;;;;;;26.28;44.86;99070.19;108559;1250;97467;-73
2024/04/16 09:05:57;;;;;;;6.60;3.40;;;;;;;26.31;44.58;99059.80;108527;1253;97223;-73
2024/04/16 09:08:28;;;;;;;9.70;3.20;;;;;;;26.38;44.30;99056.91;108447;1251;112522;-74
2024/04/16 09:11:01;;;;;;;7.30;3.50;;;;;;;26.45;43.94;99051.34;108537;1254;96385;-74
2024/04/16 09:13:32;;;;;;;7.30;3.30;;;;;;;26.48;42.88;99046.73;108584;1250;106219;-72
2024/04/16 09:16:19;;;;;;;10.50;3.20;;;;;;;26.60;42.52;99049.50;108604;1251;96414;-74
2024/04/16 09:18:55;;;;;;;11.80;3.60;;;;;;;26.68;42.32;99041.02;108550;1249;96950;-73
2024/04/16 09:21:29;;;;;;;7.60;3.60;;;;;;;26.74;41.72;99033.92;108529;1249;112465;-73
2024/04/16 09:24:02;;;;;;;5.80;3.20;;;;;;;26.76;41.75;99038.48;108541;1250;97375;-73
2024/04/16 09:26:35;;;;;;;14.10;3.60;;;;;;;26.73;41.45;99037.88;108522;1253;112609;-72
2024/04/16 09:29:05;;;;;;;;;;;;;;;26.74;41.09;99035.52;108648;1250;97669;-72
2024/04/16 09:31:36;;;;;;;8.10;3.50;;;;;;;26.72;40.54;99035.61;108538;1250;96697;-72
2024/04/16 09:34:11;;;;;;;5.40;3.30;;;;;;;26.72;40.30;99034.34;108730;1251;111399;-73
2024/04/16 09:36:55;;;;;;;7.00;3.40;;;;;;;26.69;39.65;99030.75;108625;1254;97633;-72
2024/04/16 09:39:27;;;;;;;8.60;3.40;;;;;;;26.69;40.10;99030.41;108556;1252;108043;-73
2024/04/16 09:42:03;;;;;;;9.90;3.70;;;;;;;26.70;39.92;99024.61;108616;1253;96793;-71
2024/04/16 09:44:40;;;;;;;5.00;3.10;;;;;;;26.69;39.80;99024.67;108231;1250;97697;-75
2024/04/16 09:47:17;;;;;;;8.10;3.40;;;;;;;26.67;39.51;99024.61;108514;1250;116691;-72
2024/04/16 09:49:50;;;;;;;7.30;3.60;;;;;;;26.65;39.12;99019.66;108597;1249;97057;-72
2024/04/16 09:52:21;;;;;;;11.40;3.80;;;;;;;26.60;39.11;99014.55;108435;1251;107738;-74
2024/04/16 09:54:55;;;;;;;7.30;3.70;;;;;;;26.53;38.70;99016.48;108517;1251;96999;-74
2024/04/16 09:57:28;;;;;;;8.10;3.50;;;;;;;26.50;38.68;99012.70;108551;1249;97491;-73
2024/04/16 10:00:01;;;;;;;7.00;3.20;;;;;;;26.50;38.49;99017.75;108496;1250;112190;-73
2024/04/16 10:02:37;;;;;;;6.90;3.20;;;;;;;26.50;38.33;99016.64;108522;1250;98262;-74
2024/04/16 10:05:10;;;;;;;9.60;3.50;;;;;;;26.51;38.61;99019.47;108424;1251;106300;-74
2024/04/16 10:07:42;;;;;;;8.30;3.30;;;;;;;26.56;38.42;99025.49;108341;1251;96960;-72
2024/04/16 10:10:13;;;;;;;11.50;3.90;;;;;;;26.61;38.23;99024.71;108556;1255;96597;-72
2024/04/16 10:12:44;;;;;;;13.00;4.10;;;;;;;26.67;38.24;99018.48;108493;1251;111335;-74
2024/04/16 10:15:17;;;;;;;8.90;3.70;;;;;;;26.74;38.27;99015.25;108459;1253;97468;-72
2024/04/16 10:17:56;;;;;;;15.20;4.10;;;;;;;26.77;37.81;99016.89;108473;1251;113186;-75
2024/04/16 10:20:31;;;;;;;13.10;3.80;;;;;;;26.76;37.65;99016.58;108561;1251;98012;-72
2024/04/16 10:23:06;;;;;;;5.80;3.30;;;;;;;26.75;37.57;99013.60;108635;1251;97426;-73
2024/04/16 10:25:37;;;;;;;10.80;3.70;;;;;;;26.74;37.30;99013.25;108550;1251;111381;-73
2024/04/16 10:28:08;;;;;;;10.90;3.80;;;;;;;26.69;37.47;99021.95;108498;1254;96748;-73
2024/04/16 10:30:39;;;;;;;6.80;3.50;;;;;;;26.64;37.22;99023.63;108423;1256;107004;-72
2024/04/16 10:33:15;;;;;;;11.20;3.90;;;;;;;26.64;37.43;99028.85;108477;1250;96978;-71
2024/04/16 10:35:48;;;;;;;8.30;3.80;;;;;;;26.69;37.36;99030.21;108505;1253;96613;-74
2024/04/16 10:38:21;;;;;;;8.60;3.60;;;;;;;26.70;37.13;99019.42;108485;1253;111374;-72
2024/04/16 10:40:59;;;;;;;9.20;3.80;;;;;;;26.77;37.11;99019.77;108472;1251;97421;-74
2024/04/16 10:43:37;;;;;;;9.70;3.60;;;;;;;26.82;37.08;99014.81;108388;1253;105137;-73
2024/04/16 10:46:10;;;;;;;10.80;3.80;;;;;;;26.89;37.14;99011.34;108468;1253;96998;-74
2024/04/16 10:49:08;;;;;;;10.60;3.90;;;;;;;26.98;37.00;99008.91;108399;1250;96828;-74
2024/04/16 10:52:14;;;;;;;10.90;3.80;;;;;;;27.11;37.19;99004.44;108481;1251;112185;-74
2024/04/16 10:54:47;;;;;;;13.30;4.10;;;;;;;27.19;36.67;99003.05;108243;1251;97413;-75
2024/04/16 10:57:32;;;;;;;9.90;4.10;;;;;;;27.16;36.47;99007.71;108223;1251;108089;-74
2024/04/16 11:00:21;;;;;;;13.70;4.20;;;;;;;27.14;36.21;99013.21;108433;1250;96415;-74
2024/04/16 11:02:54;;;;;;;15.00;4.70;;;;;;;27.19;36.08;99009.55;108281;1251;97669;-73
2024/04/16 11:05:27;;;;;;;11.10;3.90;;;;;;;27.23;35.98;99011.80;108289;1251;111091;-73
2024/04/16 11:08:01;;;;;;;9.30;4.40;;;;;;;27.26;35.94;99004.25;108409;1251;98295;-72
2024/04/16 11:10:33;;;;;;;9.00;4.00;;;;;;;27.25;36.14;99001.27;108335;1255;108743;-74
2024/04/16 11:13:06;;;;;;;10.90;3.90;;;;;;;27.23;36.01;98997.46;108349;1250;96716;-75
2024/04/16 11:15:37;;;;;;;8.40;4.10;;;;;;;27.21;35.91;98990.89;108485;1254;97811;-74
2024/04/16 11:18:09;;;;;;;13.20;4.30;;;;;;;27.22;35.67;98990.31;108309;1250;112126;-73
2024/04/16 11:20:41;;;;;;;9.50;3.90;;;;;;;27.24;35.93;98995.58;108602;1250;97536;-73
2024/04/16 11:23:15;;;;;;;11.00;4.30;;;;;;;27.25;35.78;98990.89;108481;1250;106370;-73
2024/04/16 11:25:48;;;;;;;12.50;4.40;;;;;;;27.28;35.63;98991.09;108544;1255;97274;-73
2024/04/16 11:28:19;;;;;;;12.30;4.30;;;;;;;27.32;35.54;98992.27;108485;1250;96588;-75
2024/04/16 11:30:57;;;;;;;6.30;4.00;;;;;;;27.36;35.35;98986.30;108495;1250;111437;-75
2024/04/16 11:33:29;;;;;;;9.40;4.10;;;;;;;27.40;35.39;98990.42;108381;1256;96527;-73
2024/04/16 11:36:04;;;;;;;9.80;4.00;;;;;;;27.36;35.37;98989.17;108419;1250;107674;-74
2024/04/16 11:38:35;;;;;;;9.40;4.70;;;;;;;27.41;35.48;98983.89;108536;1253;97313;-73
2024/04/16 11:41:09;;;;;;;11.50;4.60;;;;;;;27.46;35.53;98980.01;108544;1253;97198;-74
2024/04/16 11:43:41;;;;;;;10.30;4.50;;;;;;;27.51;35.45;98970.75;108650;1250;111388;-74
2024/04/16 11:46:14;;;;;;;8.10;3.80;;;;;;;27.56;35.43;98963.75;108653;1250;96433;-75
2024/04/16 11:48:48;;;;;;;7.20;4.10;;;;;;;27.64;35.25;98956.67;108431;1250;107141;-73
2024/04/16 11:51:21;;;;;;;13.60;4.20;;;;;;;27.72;35.06;98949.40;108150;1255;96796;-75
2024/04/16 11:53:51;;;;;;;;;;;;;;;27.78;34.82;98942.05;108415;1251;97280;-72
2024/04/16 11:56:22;;;;;;;6.90;3.80;;;;;;;27.82;34.85;98937.48;108438;1251;111389;-74
2024/04/16 11:58:53;;;;;;;10.00;4.10;;;;;;;27.86;34.62;98930.77;108269;1252;97947;-73
2024/04/16 12:01:24;;;;;;;9.10;4.20;;;;;;;27.84;34.76;98928.71;108137;1255;106644;-74
2024/04/16 12:03:55;;;;;;;8.60;4.00;;;;;;;27.86;34.67;98928.08;108236;1250;96332;-73
2024/04/16 12:06:28;;;;;;;14.10;4.80;;;;;;;27.81;33.99;98924.78;108583;1253;96949;-72
2024/04/16 12:08:59;;;;;;;11.30;3.90;;;;;;;27.77;34.32;98924.30;108623;1251;111250;-73
2024/04/16 12:11:33;;;;;;;7.10;3.60;;;;;;;27.69;34.21;98922.45;108700;1251;97161;-73
2024/04/16 12:14:04;;;;;;;12.70;4.40;;;;;;;27.69;34.04;98917.59;108585;1251;106193;-72
2024/04/16 12:16:38;;;;;;;7.60;3.60;;;;;;;27.73;33.93;98913.95;108627;1251;97641;-72
2024/04/16 12:19:12;;;;;;;8.40;3.80;;;;;;;27.77;33.69;98913.35;108516;1249;96458;-74
2024/04/16 12:21:43;;;;;;;10.80;4.20;;;;;;;27.72;33.74;98912.36;108240;1255;112730;-75
2024/04/16 12:24:16;;;;;;;11.70;4.40;;;;;;;27.69;33.67;98910.80;108449;1250;97045;-72
2024/04/16 12:26:47;;;;;;;7.90;3.70;;;;;;;27.64;33.74;98908.89;108495;1250;108294;-72
2024/04/16 12:29:21;;;;;;;11.90;4.10;;;;;;;27.58;33.76;98915.70;108529;1250;97578;-72
2024/04/16 12:31:52;;;;;;;9.60;3.80;;;;;;;27.50;33.60;98916.92;108741;1253;96484;-73